TAF KTUL
KTUL 280520Z 2806/2906 35007KT P6SM FEW250 FM290000 18004KT P6SM SKC=
METAR KTUL
WC KTUL
WS KTUL
WV KTUL